createdAt,value
2023-03-25T00:08:44.757Z,99386.69
2023-03-25T00:18:48.212Z,99390.31
2023-03-25T00:28:50.152Z,99400.22
2023-03-25T00:38:52.247Z,99374.00
2023-03-25T00:48:55.829Z,99377.34
2023-03-25T00:58:58.855Z,99372.44
2023-03-25T01:09:05.027Z,99372.81
2023-03-25T01:19:07.097Z,99374.94
2023-03-25T01:29:09.357Z,99383.16
2023-03-25T01:39:11.308Z,99375.03
2023-03-25T01:49:23.996Z,99368.78
2023-03-25T01:59:28.861Z,99376.94
2023-03-25T02:09:30.876Z,99389.09
2023-03-25T02:20:14.058Z,99374.94
2023-03-25T02:30:49.159Z,99370.34
2023-03-25T02:41:04.824Z,99370.06
2023-03-25T02:51:23.097Z,99377.97
2023-03-25T03:01:27.175Z,99374.59
2023-03-25T03:11:58.913Z,99375.19
2023-03-25T03:22:42.922Z,99386.91
2023-03-25T03:32:57.944Z,99381.91
2023-03-25T03:43:09.038Z,99378.91
2023-03-25T03:53:18.685Z,99397.38
2023-03-25T04:03:34.923Z,99393.97
2023-03-25T04:13:49.813Z,99407.34
2023-03-25T04:23:52.126Z,99406.97
2023-03-25T04:33:55.068Z,99420.63
2023-03-25T04:43:58.598Z,99412.00
2023-03-25T04:54:01.176Z,99410.94
2023-03-25T05:04:05.696Z,99414.50
2023-03-25T05:14:09.929Z,99414.00
2023-03-25T05:24:13.715Z,99423.03
2023-03-25T05:34:17.594Z,99425.19
2023-03-25T05:44:19.818Z,99420.78
2023-03-25T05:54:28.763Z,99436.47
2023-03-25T06:04:34.167Z,99444.59
2023-03-25T06:14:38.188Z,99448.53
2023-03-25T06:24:41.578Z,99449.38
2023-03-25T06:34:43.714Z,99435.03
2023-03-25T06:44:49.225Z,99429.16
2023-03-25T06:54:51.176Z,99426.88
2023-03-25T07:04:53.240Z,99419.69
2023-03-25T07:15:00.380Z,99427.38
2023-03-25T07:25:03.274Z,99418.09
2023-03-25T07:35:05.960Z,99418.00
2023-03-25T07:45:08.590Z,99422.94
2023-03-25T07:55:10.758Z,99426.06
2023-03-25T08:05:12.799Z,99427.66
2023-03-25T08:15:14.806Z,99411.59
2023-03-25T08:25:16.887Z,99405.81
2023-03-25T08:35:21.648Z,99404.34
2023-03-25T08:45:23.615Z,99397.31
2023-03-25T08:55:26.186Z,99402.91
2023-03-25T09:05:28.239Z,99403.13
2023-03-25T09:15:30.974Z,99412.03
2023-03-25T09:25:33.471Z,99405.03
2023-03-25T09:35:41.762Z,99400.13
2023-03-25T09:45:47.442Z,99390.66
2023-03-25T09:55:58.286Z,99392.41
2023-03-25T10:06:14.315Z,99389.56
2023-03-25T10:16:36.142Z,99380.91
2023-03-25T10:27:03.909Z,99355.56
2023-03-25T10:37:14.805Z,99347.16
2023-03-25T10:47:21.313Z,99348.88
2023-03-25T10:57:32.682Z,99351.56
2023-03-25T11:07:43.998Z,99329.88
2023-03-25T11:17:48.075Z,99316.25
2023-03-25T11:28:05.599Z,99294.66
2023-03-25T11:38:17.091Z,99288.59
2023-03-25T11:48:30.960Z,99292.59
2023-03-25T11:58:39.586Z,99281.91
2023-03-25T12:08:49.089Z,99266.28
2023-03-25T12:19:23.317Z,99255.47
2023-03-25T12:30:19.396Z,99253.31
2023-03-25T12:40:51.597Z,99235.88
2023-03-25T12:51:00.047Z,99269.53
2023-03-25T13:01:23.902Z,99256.09
2023-03-25T13:11:33.090Z,99249.16
2023-03-25T13:21:46.782Z,99242.06
2023-03-25T13:31:50.875Z,99245.50
2023-03-25T13:42:01.253Z,99216.19
2023-03-25T13:52:04.147Z,99210.59
2023-03-25T14:02:32.564Z,99223.81
2023-03-25T14:12:43.316Z,99206.69
2023-03-25T14:22:45.494Z,99204.50
2023-03-25T14:32:47.957Z,99215.25
2023-03-25T14:43:00.627Z,99264.88
2023-03-25T14:53:07.091Z,99296.09
2023-03-25T15:03:19.845Z,99306.16
2023-03-25T15:13:27.718Z,99308.72
2023-03-25T15:23:48.306Z,99303.38
2023-03-25T15:34:03.791Z,99302.16
2023-03-25T15:44:36.934Z,99268.28
2023-03-25T15:55:13.100Z,99269.63
2023-03-25T16:05:17.786Z,99270.09
2023-03-25T16:15:28.839Z,99289.78
2023-03-25T16:25:38.445Z,99288.78
2023-03-25T16:36:02.437Z,99279.44
2023-03-25T16:46:09.738Z,99277.28
2023-03-25T16:56:15.716Z,99287.56
2023-03-25T17:06:47.080Z,99291.75
2023-03-25T17:16:53.048Z,99306.56
2023-03-25T17:27:09.139Z,99320.88
2023-03-25T17:37:19.803Z,99297.78
2023-03-25T17:47:24.223Z,99302.28
2023-03-25T17:57:27.017Z,99299.59
2023-03-25T18:07:34.269Z,99307.91
2023-03-25T18:17:45.151Z,99311.88
2023-03-25T18:27:53.131Z,99326.66
2023-03-25T18:37:58.240Z,99358.88
2023-03-25T18:48:03.767Z,99344.75
2023-03-25T18:58:06.619Z,99337.63
2023-03-25T19:08:18.523Z,99343.50
2023-03-25T19:18:26.202Z,99333.34
2023-03-25T19:28:29.321Z,99331.19
2023-03-25T19:38:41.920Z,99336.19
2023-03-25T19:48:47.394Z,99333.91
2023-03-25T19:58:50.289Z,99324.63
2023-03-25T20:09:06.345Z,99318.81
2023-03-25T20:19:21.996Z,99312.53
2023-03-25T20:29:33.183Z,99320.41
2023-03-25T20:39:46.273Z,99319.25
2023-03-25T20:49:49.285Z,99310.91
2023-03-25T20:59:58.852Z,99312.00
2023-03-25T21:10:20.848Z,99320.69
2023-03-25T21:20:30.402Z,99315.50
2023-03-25T21:30:33.259Z,99310.47
2023-03-25T21:40:40.015Z,99308.88
2023-03-25T21:50:42.513Z,99303.84
2023-03-25T22:00:46.384Z,99308.75
2023-03-25T22:11:05.683Z,99307.09
2023-03-25T22:21:23.599Z,99301.88
2023-03-25T22:31:31.284Z,99312.53
2023-03-25T22:41:33.509Z,99312.34
2023-03-25T22:51:35.635Z,99305.19
2023-03-25T23:01:38.396Z,99315.13
2023-03-25T23:11:44.546Z,99308.63
2023-03-25T23:21:57.907Z,99310.03
2023-03-25T23:32:06.146Z,99314.63
2023-03-25T23:42:08.615Z,99312.22
2023-03-25T23:52:13.814Z,99311.81
